sensor_id;sensor_type;location;lat;lon;timestamp;P1;durP1;ratioP1;P2;durP2;ratioP2
55067;SDS011;40965;52.368;9.712;2023-07-31T00:01:34;2.88;;;1.38;;
55067;SDS011;40965;52.368;9.712;2023-07-31T00:04:00;2.03;;;1.58;;
55067;SDS011;40965;52.368;9.712;2023-07-31T00:06:31;1.92;;;1.63;;
55067;SDS011;40965;52.368;9.712;2023-07-31T00:08:58;3.60;;;1.15;;
55067;SDS011;40965;52.368;9.712;2023-07-31T00:11:24;5.10;;;1.83;;
55067;SDS011;40965;52.368;9.712;2023-07-31T00:13:52;1.83;;;1.10;;
55067;SDS011;40965;52.368;9.712;2023-07-31T00:16:19;1.20;;;1.00;;
55067;SDS011;40965;52.368;9.712;2023-07-31T00:18:46;3.35;;;1.80;;
55067;SDS011;40965;52.368;9.712;2023-07-31T00:21:12;2.97;;;1.83;;
55067;SDS011;40965;52.368;9.712;2023-07-31T00:23:41;1.30;;;1.17;;
55067;SDS011;40965;52.368;9.712;2023-07-31T00:26:08;1.45;;;1.35;;
55067;SDS011;40965;52.368;9.712;2023-07-31T00:28:34;2.22;;;1.35;;
55067;SDS011;40965;52.368;9.712;2023-07-31T00:31:01;2.80;;;1.00;;
55067;SDS011;40965;52.368;9.712;2023-07-31T00:33:28;2.45;;;1.23;;
55067;SDS011;40965;52.368;9.712;2023-07-31T00:35:57;1.17;;;1.10;;
55067;SDS011;40965;52.368;9.712;2023-07-31T00:38:23;2.35;;;1.75;;
55067;SDS011;40965;52.368;9.712;2023-07-31T00:40:50;1.70;;;1.05;;
55067;SDS011;40965;52.368;9.712;2023-07-31T00:43:16;1.65;;;1.40;;
55067;SDS011;40965;52.368;9.712;2023-07-31T00:45:44;2.03;;;1.00;;
55067;SDS011;40965;52.368;9.712;2023-07-31T00:48:10;2.97;;;1.23;;
55067;SDS011;40965;52.368;9.712;2023-07-31T00:50:37;3.38;;;1.45;;
55067;SDS011;40965;52.368;9.712;2023-07-31T00:53:05;2.50;;;1.67;;
55067;SDS011;40965;52.368;9.712;2023-07-31T00:55:31;2.05;;;1.55;;
55067;SDS011;40965;52.368;9.712;2023-07-31T00:57:58;2.50;;;1.98;;
55067;SDS011;40965;52.368;9.712;2023-07-31T01:00:24;3.70;;;0.90;;
55067;SDS011;40965;52.368;9.712;2023-07-31T01:02:51;1.45;;;0.90;;
55067;SDS011;40965;52.368;9.712;2023-07-31T01:05:23;2.92;;;1.20;;
55067;SDS011;40965;52.368;9.712;2023-07-31T01:08:34;2.22;;;1.02;;
55067;SDS011;40965;52.368;9.712;2023-07-31T01:11:16;1.02;;;1.00;;
55067;SDS011;40965;52.368;9.712;2023-07-31T01:13:52;1.48;;;1.05;;
55067;SDS011;40965;52.368;9.712;2023-07-31T01:16:21;3.92;;;1.35;;
55067;SDS011;40965;52.368;9.712;2023-07-31T01:18:47;3.88;;;1.25;;
55067;SDS011;40965;52.368;9.712;2023-07-31T01:21:30;8.93;;;1.33;;
55067;SDS011;40965;52.368;9.712;2023-07-31T01:26:53;0.85;;;0.55;;
55067;SDS011;40965;52.368;9.712;2023-07-31T01:32:15;1.15;;;0.60;;
55067;SDS011;40965;52.368;9.712;2023-07-31T01:34:44;2.30;;;0.95;;
55067;SDS011;40965;52.368;9.712;2023-07-31T01:37:12;0.85;;;0.60;;
55067;SDS011;40965;52.368;9.712;2023-07-31T01:39:39;2.45;;;0.80;;
55067;SDS011;40965;52.368;9.712;2023-07-31T01:42:05;1.73;;;0.80;;
55067;SDS011;40965;52.368;9.712;2023-07-31T01:44:32;1.40;;;1.10;;
55067;SDS011;40965;52.368;9.712;2023-07-31T01:46:59;1.90;;;1.45;;
55067;SDS011;40965;52.368;9.712;2023-07-31T01:49:26;2.92;;;1.25;;
55067;SDS011;40965;52.368;9.712;2023-07-31T01:51:52;1.75;;;1.02;;
55067;SDS011;40965;52.368;9.712;2023-07-31T01:54:19;2.67;;;0.90;;
55067;SDS011;40965;52.368;9.712;2023-07-31T01:56:45;0.65;;;0.65;;
55067;SDS011;40965;52.368;9.712;2023-07-31T01:59:12;1.95;;;0.70;;
55067;SDS011;40965;52.368;9.712;2023-07-31T02:01:38;3.13;;;1.00;;
55067;SDS011;40965;52.368;9.712;2023-07-31T02:04:05;2.33;;;0.60;;
55067;SDS011;40965;52.368;9.712;2023-07-31T02:06:31;3.40;;;0.80;;
55067;SDS011;40965;52.368;9.712;2023-07-31T02:08:58;1.42;;;0.85;;
55067;SDS011;40965;52.368;9.712;2023-07-31T02:11:25;0.60;;;0.60;;
55067;SDS011;40965;52.368;9.712;2023-07-31T02:13:51;1.77;;;0.50;;
55067;SDS011;40965;52.368;9.712;2023-07-31T02:16:18;3.50;;;0.70;;
55067;SDS011;40965;52.368;9.712;2023-07-31T02:18:44;1.67;;;0.65;;
55067;SDS011;40965;52.368;9.712;2023-07-31T02:21:11;3.60;;;0.70;;
55067;SDS011;40965;52.368;9.712;2023-07-31T02:23:38;0.55;;;0.38;;
55067;SDS011;40965;52.368;9.712;2023-07-31T02:26:04;0.68;;;0.38;;
55067;SDS011;40965;52.368;9.712;2023-07-31T02:28:31;0.63;;;0.30;;
55067;SDS011;40965;52.368;9.712;2023-07-31T02:30:57;1.58;;;0.40;;
55067;SDS011;40965;52.368;9.712;2023-07-31T02:33:24;1.92;;;0.45;;
55067;SDS011;40965;52.368;9.712;2023-07-31T02:35:50;1.65;;;0.70;;
55067;SDS011;40965;52.368;9.712;2023-07-31T02:38:17;1.35;;;0.50;;
55067;SDS011;40965;52.368;9.712;2023-07-31T02:40:44;0.95;;;0.45;;
55067;SDS011;40965;52.368;9.712;2023-07-31T02:43:10;0.98;;;0.30;;
55067;SDS011;40965;52.368;9.712;2023-07-31T02:45:37;0.38;;;0.38;;
55067;SDS011;40965;52.368;9.712;2023-07-31T02:48:03;1.92;;;0.68;;
55067;SDS011;40965;52.368;9.712;2023-07-31T02:50:30;2.42;;;0.55;;
55067;SDS011;40965;52.368;9.712;2023-07-31T02:52:57;1.40;;;0.93;;
55067;SDS011;40965;52.368;9.712;2023-07-31T02:55:23;0.17;;;0.17;;
55067;SDS011;40965;52.368;9.712;2023-07-31T02:57:50;0.45;;;0.45;;
55067;SDS011;40965;52.368;9.712;2023-07-31T03:00:17;0.68;;;0.68;;
55067;SDS011;40965;52.368;9.712;2023-07-31T03:02:44;0.40;;;0.40;;
55067;SDS011;40965;52.368;9.712;2023-07-31T03:05:10;0.65;;;0.35;;
55067;SDS011;40965;52.368;9.712;2023-07-31T03:07:37;0.93;;;0.30;;
55067;SDS011;40965;52.368;9.712;2023-07-31T03:10:03;0.75;;;0.10;;
55067;SDS011;40965;52.368;9.712;2023-07-31T03:12:30;0.32;;;0.30;;
55067;SDS011;40965;52.368;9.712;2023-07-31T03:14:57;1.35;;;0.30;;
55067;SDS011;40965;52.368;9.712;2023-07-31T03:17:23;0.50;;;0.50;;
55067;SDS011;40965;52.368;9.712;2023-07-31T03:19:50;0.65;;;0.30;;
55067;SDS011;40965;52.368;9.712;2023-07-31T03:22:16;1.45;;;0.40;;
55067;SDS011;40965;52.368;9.712;2023-07-31T03:24:43;0.73;;;0.30;;
55067;SDS011;40965;52.368;9.712;2023-07-31T03:27:09;1.08;;;0.50;;
55067;SDS011;40965;52.368;9.712;2023-07-31T03:29:36;0.50;;;0.25;;
55067;SDS011;40965;52.368;9.712;2023-07-31T03:32:02;0.40;;;0.40;;
55067;SDS011;40965;52.368;9.712;2023-07-31T03:34:29;2.58;;;0.45;;
55067;SDS011;40965;52.368;9.712;2023-07-31T03:36:57;0.50;;;0.40;;
55067;SDS011;40965;52.368;9.712;2023-07-31T03:39:26;1.45;;;0.43;;
55067;SDS011;40965;52.368;9.712;2023-07-31T03:41:53;0.80;;;0.80;;
55067;SDS011;40965;52.368;9.712;2023-07-31T03:44:19;0.90;;;0.90;;
55067;SDS011;40965;52.368;9.712;2023-07-31T03:46:46;5.15;;;3.92;;
55067;SDS011;40965;52.368;9.712;2023-07-31T03:49:12;2.00;;;0.82;;
55067;SDS011;40965;52.368;9.712;2023-07-31T03:51:39;2.83;;;0.52;;
55067;SDS011;40965;52.368;9.712;2023-07-31T03:54:06;1.48;;;0.52;;
55067;SDS011;40965;52.368;9.712;2023-07-31T03:56:33;1.60;;;0.70;;
55067;SDS011;40965;52.368;9.712;2023-07-31T03:59:00;1.98;;;0.63;;
55067;SDS011;40965;52.368;9.712;2023-07-31T04:01:26;0.90;;;0.50;;
55067;SDS011;40965;52.368;9.712;2023-07-31T04:03:53;0.77;;;0.40;;
55067;SDS011;40965;52.368;9.712;2023-07-31T04:06:19;1.65;;;0.30;;
55067;SDS011;40965;52.368;9.712;2023-07-31T04:08:46;1.58;;;0.60;;
55067;SDS011;40965;52.368;9.712;2023-07-31T04:11:12;0.60;;;0.60;;
55067;SDS011;40965;52.368;9.712;2023-07-31T04:13:40;0.80;;;0.75;;
55067;SDS011;40965;52.368;9.712;2023-07-31T04:16:07;0.77;;;0.57;;
55067;SDS011;40965;52.368;9.712;2023-07-31T04:18:34;0.65;;;0.47;;
55067;SDS011;40965;52.368;9.712;2023-07-31T04:21:00;0.95;;;0.60;;
55067;SDS011;40965;52.368;9.712;2023-07-31T04:23:27;0.80;;;0.65;;
55067;SDS011;40965;52.368;9.712;2023-07-31T04:25:54;1.15;;;0.70;;
55067;SDS011;40965;52.368;9.712;2023-07-31T04:28:20;2.63;;;1.30;;
55067;SDS011;40965;52.368;9.712;2023-07-31T04:30:47;0.90;;;0.68;;
55067;SDS011;40965;52.368;9.712;2023-07-31T04:33:14;0.50;;;0.50;;
55067;SDS011;40965;52.368;9.712;2023-07-31T04:35:40;0.60;;;0.60;;
55067;SDS011;40965;52.368;9.712;2023-07-31T04:38:07;1.65;;;0.70;;
55067;SDS011;40965;52.368;9.712;2023-07-31T04:40:33;0.68;;;0.52;;
55067;SDS011;40965;52.368;9.712;2023-07-31T04:43:00;1.33;;;0.70;;
55067;SDS011;40965;52.368;9.712;2023-07-31T04:45:26;0.70;;;0.70;;
55067;SDS011;40965;52.368;9.712;2023-07-31T04:47:53;0.45;;;0.45;;
55067;SDS011;40965;52.368;9.712;2023-07-31T04:50:19;1.00;;;0.40;;
55067;SDS011;40965;52.368;9.712;2023-07-31T04:52:46;0.90;;;0.40;;
55067;SDS011;40965;52.368;9.712;2023-07-31T04:55:13;0.50;;;0.50;;
55067;SDS011;40965;52.368;9.712;2023-07-31T04:57:40;0.57;;;0.57;;
55067;SDS011;40965;52.368;9.712;2023-07-31T05:00:06;1.92;;;0.70;;
55067;SDS011;40965;52.368;9.712;2023-07-31T05:02:34;0.70;;;0.65;;
55067;SDS011;40965;52.368;9.712;2023-07-31T05:05:00;1.60;;;0.57;;
55067;SDS011;40965;52.368;9.712;2023-07-31T05:07:27;1.33;;;0.28;;
55067;SDS011;40965;52.368;9.712;2023-07-31T05:09:56;1.20;;;0.35;;
55067;SDS011;40965;52.368;9.712;2023-07-31T05:12:23;0.30;;;0.30;;
55067;SDS011;40965;52.368;9.712;2023-07-31T05:14:49;0.68;;;0.20;;
55067;SDS011;40965;52.368;9.712;2023-07-31T05:17:18;0.20;;;0.20;;
55067;SDS011;40965;52.368;9.712;2023-07-31T05:19:45;0.22;;;0.22;;
55067;SDS011;40965;52.368;9.712;2023-07-31T05:22:11;0.57;;;0.20;;
55067;SDS011;40965;52.368;9.712;2023-07-31T05:24:38;0.30;;;0.30;;
55067;SDS011;40965;52.368;9.712;2023-07-31T05:27:07;0.52;;;0.47;;
55067;SDS011;40965;52.368;9.712;2023-07-31T05:29:34;0.52;;;0.30;;
55067;SDS011;40965;52.368;9.712;2023-07-31T05:32:01;0.55;;;0.50;;
55067;SDS011;40965;52.368;9.712;2023-07-31T05:34:28;1.15;;;0.45;;
55067;SDS011;40965;52.368;9.712;2023-07-31T05:36:54;1.25;;;0.65;;
55067;SDS011;40965;52.368;9.712;2023-07-31T05:39:21;0.80;;;0.80;;
55067;SDS011;40965;52.368;9.712;2023-07-31T05:41:47;1.40;;;1.30;;
55067;SDS011;40965;52.368;9.712;2023-07-31T05:44:14;4.00;;;2.30;;
55067;SDS011;40965;52.368;9.712;2023-07-31T05:46:41;3.33;;;2.25;;
55067;SDS011;40965;52.368;9.712;2023-07-31T05:49:07;4.55;;;3.65;;
55067;SDS011;40965;52.368;9.712;2023-07-31T05:51:34;3.50;;;3.25;;
55067;SDS011;40965;52.368;9.712;2023-07-31T05:54:00;6.72;;;4.65;;
55067;SDS011;40965;52.368;9.712;2023-07-31T05:56:27;6.43;;;4.93;;
55067;SDS011;40965;52.368;9.712;2023-07-31T05:58:53;5.72;;;5.03;;
55067;SDS011;40965;52.368;9.712;2023-07-31T06:01:22;6.47;;;4.82;;
55067;SDS011;40965;52.368;9.712;2023-07-31T06:03:49;9.07;;;5.00;;
55067;SDS011;40965;52.368;9.712;2023-07-31T06:06:15;8.52;;;6.05;;
55067;SDS011;40965;52.368;9.712;2023-07-31T06:08:42;8.40;;;6.05;;
55067;SDS011;40965;52.368;9.712;2023-07-31T06:11:08;6.63;;;5.80;;
55067;SDS011;40965;52.368;9.712;2023-07-31T06:13:35;8.75;;;6.65;;
55067;SDS011;40965;52.368;9.712;2023-07-31T06:16:02;9.90;;;6.78;;
55067;SDS011;40965;52.368;9.712;2023-07-31T06:18:30;8.45;;;6.53;;
55067;SDS011;40965;52.368;9.712;2023-07-31T06:20:58;11.50;;;8.45;;
55067;SDS011;40965;52.368;9.712;2023-07-31T06:23:25;11.10;;;7.13;;
55067;SDS011;40965;52.368;9.712;2023-07-31T06:25:52;7.43;;;6.72;;
55067;SDS011;40965;52.368;9.712;2023-07-31T06:28:18;7.82;;;5.97;;
55067;SDS011;40965;52.368;9.712;2023-07-31T06:30:45;8.68;;;6.57;;
55067;SDS011;40965;52.368;9.712;2023-07-31T06:33:12;10.85;;;6.57;;
55067;SDS011;40965;52.368;9.712;2023-07-31T06:35:39;8.27;;;6.30;;
55067;SDS011;40965;52.368;9.712;2023-07-31T06:38:05;11.25;;;6.32;;
55067;SDS011;40965;52.368;9.712;2023-07-31T06:40:32;8.07;;;5.70;;
55067;SDS011;40965;52.368;9.712;2023-07-31T06:42:58;9.00;;;6.90;;
55067;SDS011;40965;52.368;9.712;2023-07-31T06:45:31;7.85;;;6.30;;
55067;SDS011;40965;52.368;9.712;2023-07-31T06:47:58;10.95;;;6.72;;
55067;SDS011;40965;52.368;9.712;2023-07-31T06:50:26;8.13;;;6.03;;
55067;SDS011;40965;52.368;9.712;2023-07-31T06:52:54;9.25;;;6.85;;
55067;SDS011;40965;52.368;9.712;2023-07-31T06:55:20;8.02;;;6.53;;
55067;SDS011;40965;52.368;9.712;2023-07-31T06:57:48;10.20;;;7.30;;
55067;SDS011;40965;52.368;9.712;2023-07-31T07:00:16;10.40;;;6.68;;
55067;SDS011;40965;52.368;9.712;2023-07-31T07:02:44;13.13;;;7.28;;
55067;SDS011;40965;52.368;9.712;2023-07-31T07:05:12;11.73;;;8.55;;
55067;SDS011;40965;52.368;9.712;2023-07-31T07:07:39;14.40;;;7.75;;
55067;SDS011;40965;52.368;9.712;2023-07-31T07:10:07;14.13;;;8.38;;
55067;SDS011;40965;52.368;9.712;2023-07-31T07:12:34;12.25;;;8.73;;
55067;SDS011;40965;52.368;9.712;2023-07-31T07:15:01;15.75;;;10.02;;
55067;SDS011;40965;52.368;9.712;2023-07-31T07:17:29;17.50;;;9.75;;
55067;SDS011;40965;52.368;9.712;2023-07-31T07:19:57;17.92;;;10.40;;
55067;SDS011;40965;52.368;9.712;2023-07-31T07:22:24;13.57;;;9.20;;
55067;SDS011;40965;52.368;9.712;2023-07-31T07:24:52;16.17;;;9.95;;
55067;SDS011;40965;52.368;9.712;2023-07-31T07:27:19;23.60;;;11.32;;
55067;SDS011;40965;52.368;9.712;2023-07-31T07:29:46;15.57;;;10.50;;
55067;SDS011;40965;52.368;9.712;2023-07-31T07:32:12;13.32;;;10.45;;
55067;SDS011;40965;52.368;9.712;2023-07-31T07:34:39;13.75;;;9.23;;
55067;SDS011;40965;52.368;9.712;2023-07-31T07:37:06;16.38;;;10.50;;
55067;SDS011;40965;52.368;9.712;2023-07-31T07:39:33;17.98;;;9.95;;
55067;SDS011;40965;52.368;9.712;2023-07-31T07:42:00;12.68;;;9.32;;
55067;SDS011;40965;52.368;9.712;2023-07-31T07:44:26;11.00;;;9.38;;
55067;SDS011;40965;52.368;9.712;2023-07-31T07:46:53;14.13;;;8.35;;
55067;SDS011;40965;52.368;9.712;2023-07-31T07:49:20;9.10;;;7.47;;
55067;SDS011;40965;52.368;9.712;2023-07-31T07:51:47;16.17;;;8.45;;
55067;SDS011;40965;52.368;9.712;2023-07-31T07:54:14;15.38;;;7.65;;
55067;SDS011;40965;52.368;9.712;2023-07-31T07:56:42;12.88;;;6.63;;
55067;SDS011;40965;52.368;9.712;2023-07-31T07:59:09;9.05;;;6.65;;
55067;SDS011;40965;52.368;9.712;2023-07-31T08:01:37;17.27;;;8.45;;
55067;SDS011;40965;52.368;9.712;2023-07-31T08:04:03;8.93;;;6.18;;
55067;SDS011;40965;52.368;9.712;2023-07-31T08:06:30;8.13;;;5.63;;
55067;SDS011;40965;52.368;9.712;2023-07-31T08:08:59;11.07;;;5.85;;
55067;SDS011;40965;52.368;9.712;2023-07-31T08:11:31;9.48;;;4.82;;
55067;SDS011;40965;52.368;9.712;2023-07-31T08:14:00;10.93;;;5.28;;
55067;SDS011;40965;52.368;9.712;2023-07-31T08:16:27;9.63;;;5.18;;
55067;SDS011;40965;52.368;9.712;2023-07-31T08:18:54;11.68;;;4.93;;
55067;SDS011;40965;52.368;9.712;2023-07-31T08:21:21;6.15;;;4.65;;
55067;SDS011;40965;52.368;9.712;2023-07-31T08:23:49;7.28;;;4.28;;
55067;SDS011;40965;52.368;9.712;2023-07-31T08:26:16;8.68;;;4.50;;
55067;SDS011;40965;52.368;9.712;2023-07-31T08:28:44;10.30;;;4.50;;
55067;SDS011;40965;52.368;9.712;2023-07-31T08:31:11;8.23;;;4.28;;
55067;SDS011;40965;52.368;9.712;2023-07-31T08:33:44;6.43;;;4.63;;
55067;SDS011;40965;52.368;9.712;2023-07-31T08:36:11;7.10;;;4.82;;
55067;SDS011;40965;52.368;9.712;2023-07-31T08:38:40;8.25;;;4.95;;
55067;SDS011;40965;52.368;9.712;2023-07-31T08:41:07;7.95;;;4.45;;
55067;SDS011;40965;52.368;9.712;2023-07-31T08:43:38;7.55;;;4.32;;
55067;SDS011;40965;52.368;9.712;2023-07-31T08:46:05;10.80;;;4.65;;
55067;SDS011;40965;52.368;9.712;2023-07-31T08:48:33;6.43;;;5.03;;
55067;SDS011;40965;52.368;9.712;2023-07-31T08:51:02;8.38;;;4.93;;
55067;SDS011;40965;52.368;9.712;2023-07-31T08:53:32;6.78;;;4.38;;
55067;SDS011;40965;52.368;9.712;2023-07-31T08:55:59;6.65;;;4.32;;
55067;SDS011;40965;52.368;9.712;2023-07-31T08:58:27;9.07;;;4.57;;
55067;SDS011;40965;52.368;9.712;2023-07-31T09:00:58;7.60;;;4.50;;
55067;SDS011;40965;52.368;9.712;2023-07-31T09:03:28;7.25;;;4.22;;
55067;SDS011;40965;52.368;9.712;2023-07-31T09:06:01;7.22;;;4.57;;
55067;SDS011;40965;52.368;9.712;2023-07-31T09:08:30;6.55;;;4.15;;
55067;SDS011;40965;52.368;9.712;2023-07-31T09:11:01;5.55;;;4.07;;
55067;SDS011;40965;52.368;9.712;2023-07-31T09:13:30;6.90;;;4.50;;
55067;SDS011;40965;52.368;9.712;2023-07-31T09:15:57;6.68;;;4.20;;
55067;SDS011;40965;52.368;9.712;2023-07-31T09:18:25;5.30;;;4.25;;
55067;SDS011;40965;52.368;9.712;2023-07-31T09:21:02;7.40;;;3.92;;
55067;SDS011;40965;52.368;9.712;2023-07-31T09:23:40;6.22;;;4.03;;
55067;SDS011;40965;52.368;9.712;2023-07-31T09:26:10;7.10;;;2.97;;
55067;SDS011;40965;52.368;9.712;2023-07-31T09:28:37;4.75;;;3.13;;
55067;SDS011;40965;52.368;9.712;2023-07-31T09:31:03;7.28;;;3.70;;
55067;SDS011;40965;52.368;9.712;2023-07-31T09:33:30;4.57;;;2.17;;
55067;SDS011;40965;52.368;9.712;2023-07-31T09:36:00;5.38;;;3.78;;
55067;SDS011;40965;52.368;9.712;2023-07-31T09:38:30;6.38;;;3.00;;
55067;SDS011;40965;52.368;9.712;2023-07-31T09:40:57;3.95;;;2.55;;
55067;SDS011;40965;52.368;9.712;2023-07-31T09:43:24;2.00;;;1.75;;
55067;SDS011;40965;52.368;9.712;2023-07-31T09:45:56;4.30;;;3.13;;
55067;SDS011;40965;52.368;9.712;2023-07-31T09:48:25;2.70;;;1.83;;
55067;SDS011;40965;52.368;9.712;2023-07-31T09:50:55;1.83;;;1.73;;
55067;SDS011;40965;52.368;9.712;2023-07-31T09:53:27;2.08;;;1.77;;
55067;SDS011;40965;52.368;9.712;2023-07-31T09:55:58;1.27;;;1.27;;
55067;SDS011;40965;52.368;9.712;2023-07-31T09:58:29;1.05;;;1.05;;
55067;SDS011;40965;52.368;9.712;2023-07-31T10:01:01;2.75;;;1.67;;
55067;SDS011;40965;52.368;9.712;2023-07-31T10:03:29;2.65;;;1.58;;
55067;SDS011;40965;52.368;9.712;2023-07-31T10:05:58;2.63;;;1.20;;
55067;SDS011;40965;52.368;9.712;2023-07-31T10:08:30;4.03;;;1.33;;
55067;SDS011;40965;52.368;9.712;2023-07-31T10:10:59;2.08;;;1.25;;
55067;SDS011;40965;52.368;9.712;2023-07-31T10:13:28;1.38;;;1.05;;
55067;SDS011;40965;52.368;9.712;2023-07-31T10:15:59;0.85;;;0.85;;
55067;SDS011;40965;52.368;9.712;2023-07-31T10:18:26;1.92;;;1.30;;
55067;SDS011;40965;52.368;9.712;2023-07-31T10:20:54;3.20;;;1.10;;
55067;SDS011;40965;52.368;9.712;2023-07-31T10:23:22;2.30;;;1.35;;
55067;SDS011;40965;52.368;9.712;2023-07-31T10:25:51;2.10;;;1.95;;
55067;SDS011;40965;52.368;9.712;2023-07-31T10:28:22;2.38;;;1.00;;
55067;SDS011;40965;52.368;9.712;2023-07-31T10:30:51;0.95;;;0.95;;
55067;SDS011;40965;52.368;9.712;2023-07-31T10:33:20;1.27;;;1.27;;
55067;SDS011;40965;52.368;9.712;2023-07-31T10:36:11;1.73;;;1.40;;
55067;SDS011;40965;52.368;9.712;2023-07-31T10:38:43;1.10;;;1.00;;
55067;SDS011;40965;52.368;9.712;2023-07-31T10:44:46;1.20;;;1.08;;
55067;SDS011;40965;52.368;9.712;2023-07-31T10:47:16;1.70;;;1.60;;
55067;SDS011;40965;52.368;9.712;2023-07-31T10:49:46;2.03;;;0.93;;
55067;SDS011;40965;52.368;9.712;2023-07-31T10:52:13;1.58;;;0.77;;
55067;SDS011;40965;52.368;9.712;2023-07-31T10:54:40;2.05;;;1.23;;
55067;SDS011;40965;52.368;9.712;2023-07-31T10:57:18;1.13;;;1.08;;
55067;SDS011;40965;52.368;9.712;2023-07-31T10:59:47;2.45;;;1.75;;
55067;SDS011;40965;52.368;9.712;2023-07-31T11:02:27;1.17;;;1.08;;
55067;SDS011;40965;52.368;9.712;2023-07-31T11:05:06;2.50;;;1.15;;
55067;SDS011;40965;52.368;9.712;2023-07-31T11:07:46;1.20;;;1.20;;
55067;SDS011;40965;52.368;9.712;2023-07-31T11:10:20;1.92;;;1.25;;
55067;SDS011;40965;52.368;9.712;2023-07-31T11:12:50;1.17;;;1.10;;
55067;SDS011;40965;52.368;9.712;2023-07-31T11:15:22;0.98;;;0.88;;
55067;SDS011;40965;52.368;9.712;2023-07-31T11:17:48;3.70;;;1.13;;
55067;SDS011;40965;52.368;9.712;2023-07-31T11:20:18;2.65;;;1.30;;
55067;SDS011;40965;52.368;9.712;2023-07-31T11:22:48;1.30;;;0.85;;
55067;SDS011;40965;52.368;9.712;2023-07-31T11:25:17;1.40;;;1.15;;
55067;SDS011;40965;52.368;9.712;2023-07-31T11:27:44;1.33;;;1.20;;
55067;SDS011;40965;52.368;9.712;2023-07-31T11:30:13;1.48;;;1.38;;
55067;SDS011;40965;52.368;9.712;2023-07-31T11:32:40;2.70;;;1.30;;
55067;SDS011;40965;52.368;9.712;2023-07-31T11:35:12;4.43;;;1.10;;
55067;SDS011;40965;52.368;9.712;2023-07-31T11:37:41;7.75;;;2.60;;
55067;SDS011;40965;52.368;9.712;2023-07-31T11:40:10;1.65;;;1.55;;
55067;SDS011;40965;52.368;9.712;2023-07-31T11:42:37;9.30;;;1.83;;
55067;SDS011;40965;52.368;9.712;2023-07-31T11:45:05;8.32;;;2.70;;
55067;SDS011;40965;52.368;9.712;2023-07-31T11:47:35;1.33;;;1.08;;
55067;SDS011;40965;52.368;9.712;2023-07-31T11:50:11;2.03;;;1.85;;
55067;SDS011;40965;52.368;9.712;2023-07-31T11:52:42;0.98;;;0.98;;
55067;SDS011;40965;52.368;9.712;2023-07-31T11:55:17;3.45;;;1.48;;
55067;SDS011;40965;52.368;9.712;2023-07-31T11:57:44;1.40;;;1.30;;
55067;SDS011;40965;52.368;9.712;2023-07-31T12:00:12;1.05;;;1.05;;
55067;SDS011;40965;52.368;9.712;2023-07-31T12:02:39;2.63;;;1.20;;
55067;SDS011;40965;52.368;9.712;2023-07-31T12:05:10;1.55;;;0.75;;
55067;SDS011;40965;52.368;9.712;2023-07-31T12:07:49;1.00;;;0.90;;
55067;SDS011;40965;52.368;9.712;2023-07-31T12:10:36;1.17;;;0.88;;
55067;SDS011;40965;52.368;9.712;2023-07-31T12:13:09;1.00;;;0.93;;
55067;SDS011;40965;52.368;9.712;2023-07-31T12:15:42;0.98;;;0.82;;
55067;SDS011;40965;52.368;9.712;2023-07-31T12:18:13;1.10;;;0.75;;
55067;SDS011;40965;52.368;9.712;2023-07-31T12:20:47;1.30;;;0.73;;
55067;SDS011;40965;52.368;9.712;2023-07-31T12:23:19;1.83;;;1.00;;
55067;SDS011;40965;52.368;9.712;2023-07-31T12:26:11;0.95;;;0.60;;
55067;SDS011;40965;52.368;9.712;2023-07-31T12:28:47;1.20;;;0.68;;
55067;SDS011;40965;52.368;9.712;2023-07-31T12:31:16;1.42;;;0.45;;
55067;SDS011;40965;52.368;9.712;2023-07-31T12:33:48;0.50;;;0.50;;
55067;SDS011;40965;52.368;9.712;2023-07-31T12:36:17;0.50;;;0.50;;
55067;SDS011;40965;52.368;9.712;2023-07-31T12:38:48;1.48;;;0.80;;
55067;SDS011;40965;52.368;9.712;2023-07-31T12:41:17;1.00;;;0.75;;
55067;SDS011;40965;52.368;9.712;2023-07-31T12:43:44;3.13;;;1.10;;
55067;SDS011;40965;52.368;9.712;2023-07-31T12:46:16;1.15;;;0.88;;
55067;SDS011;40965;52.368;9.712;2023-07-31T12:48:43;0.88;;;0.55;;
55067;SDS011;40965;52.368;9.712;2023-07-31T12:51:10;0.55;;;0.40;;
55067;SDS011;40965;52.368;9.712;2023-07-31T12:53:40;0.38;;;0.38;;
55067;SDS011;40965;52.368;9.712;2023-07-31T12:56:09;0.40;;;0.40;;
55067;SDS011;40965;52.368;9.712;2023-07-31T12:58:47;1.17;;;0.40;;
55067;SDS011;40965;52.368;9.712;2023-07-31T13:01:14;0.38;;;0.38;;
55067;SDS011;40965;52.368;9.712;2023-07-31T13:03:40;0.35;;;0.25;;
55067;SDS011;40965;52.368;9.712;2023-07-31T13:06:07;1.10;;;0.30;;
55067;SDS011;40965;52.368;9.712;2023-07-31T13:08:33;1.02;;;0.10;;
55067;SDS011;40965;52.368;9.712;2023-07-31T13:11:01;0.90;;;0.40;;
55067;SDS011;40965;52.368;9.712;2023-07-31T13:13:27;0.30;;;0.30;;
55067;SDS011;40965;52.368;9.712;2023-07-31T13:15:56;1.13;;;0.40;;
55067;SDS011;40965;52.368;9.712;2023-07-31T13:18:26;0.20;;;0.10;;
55067;SDS011;40965;52.368;9.712;2023-07-31T13:20:53;1.58;;;0.38;;
55067;SDS011;40965;52.368;9.712;2023-07-31T13:23:19;2.15;;;0.30;;
55067;SDS011;40965;52.368;9.712;2023-07-31T13:25:53;0.20;;;0.20;;
55067;SDS011;40965;52.368;9.712;2023-07-31T13:28:39;0.63;;;0.32;;
55067;SDS011;40965;52.368;9.712;2023-07-31T13:31:06;1.55;;;0.47;;
55067;SDS011;40965;52.368;9.712;2023-07-31T13:33:34;0.43;;;0.43;;
55067;SDS011;40965;52.368;9.712;2023-07-31T13:39:50;0.63;;;0.60;;
55067;SDS011;40965;52.368;9.712;2023-07-31T13:42:24;0.68;;;0.60;;
55067;SDS011;40965;52.368;9.712;2023-07-31T13:44:51;0.20;;;0.20;;
55067;SDS011;40965;52.368;9.712;2023-07-31T13:47:18;0.20;;;0.20;;
55067;SDS011;40965;52.368;9.712;2023-07-31T13:49:45;1.20;;;0.30;;
55067;SDS011;40965;52.368;9.712;2023-07-31T13:52:11;0.22;;;0.22;;
55067;SDS011;40965;52.368;9.712;2023-07-31T13:54:38;0.20;;;0.20;;
55067;SDS011;40965;52.368;9.712;2023-07-31T13:57:08;0.57;;;0.35;;
55067;SDS011;40965;52.368;9.712;2023-07-31T13:59:35;1.65;;;0.20;;
55067;SDS011;40965;52.368;9.712;2023-07-31T14:02:02;0.98;;;0.22;;
55067;SDS011;40965;52.368;9.712;2023-07-31T14:04:29;0.20;;;0.20;;
55067;SDS011;40965;52.368;9.712;2023-07-31T14:06:58;0.20;;;0.20;;
55067;SDS011;40965;52.368;9.712;2023-07-31T14:09:25;0.30;;;0.30;;
55067;SDS011;40965;52.368;9.712;2023-07-31T14:11:53;2.42;;;1.00;;
55067;SDS011;40965;52.368;9.712;2023-07-31T14:14:20;0.28;;;0.20;;
55067;SDS011;40965;52.368;9.712;2023-07-31T14:16:46;0.95;;;0.30;;
55067;SDS011;40965;52.368;9.712;2023-07-31T14:19:13;1.15;;;0.20;;
55067;SDS011;40965;52.368;9.712;2023-07-31T14:21:39;0.40;;;0.30;;
55067;SDS011;40965;52.368;9.712;2023-07-31T14:24:07;0.40;;;0.40;;
55067;SDS011;40965;52.368;9.712;2023-07-31T14:26:34;0.30;;;0.30;;
55067;SDS011;40965;52.368;9.712;2023-07-31T14:29:03;0.20;;;0.20;;
55067;SDS011;40965;52.368;9.712;2023-07-31T14:31:30;0.50;;;0.50;;
55067;SDS011;40965;52.368;9.712;2023-07-31T14:33:57;0.30;;;0.30;;
55067;SDS011;40965;52.368;9.712;2023-07-31T14:36:23;0.70;;;0.70;;
55067;SDS011;40965;52.368;9.712;2023-07-31T14:38:50;0.73;;;0.60;;
55067;SDS011;40965;52.368;9.712;2023-07-31T14:41:18;0.75;;;0.75;;
55067;SDS011;40965;52.368;9.712;2023-07-31T14:43:45;1.13;;;0.98;;
55067;SDS011;40965;52.368;9.712;2023-07-31T14:46:12;0.98;;;0.98;;
55067;SDS011;40965;52.368;9.712;2023-07-31T14:48:39;2.00;;;1.23;;
55067;SDS011;40965;52.368;9.712;2023-07-31T14:51:07;2.05;;;1.45;;
55067;SDS011;40965;52.368;9.712;2023-07-31T14:53:36;1.40;;;1.23;;
55067;SDS011;40965;52.368;9.712;2023-07-31T14:56:03;2.42;;;1.25;;
55067;SDS011;40965;52.368;9.712;2023-07-31T14:58:30;1.15;;;1.05;;
55067;SDS011;40965;52.368;9.712;2023-07-31T15:00:56;2.55;;;1.33;;
55067;SDS011;40965;52.368;9.712;2023-07-31T15:03:28;1.92;;;1.83;;
55067;SDS011;40965;52.368;9.712;2023-07-31T15:05:55;1.60;;;1.60;;